Time;durP1;ratioP1;P1;durP2;ratioP2;P2;SDS_P1;SDS_P2;PMS_P1;PMS_P2;Temp;Humidity;BMP_temperature;BMP_pressure;BME280_temperature;BME280_humidity;BME280_pressure;Samples;Min_cycle;Max_cycle;Signal;HPM_P1;HPM_P2
2021/06/03 00:00:53;;;;;;;2.30;2.10;;;10.80;99.90;;;;;;7675641;23;20148;-71
2021/06/03 00:03:56;;;;;;;5.03;2.60;;;10.70;99.90;;;;;;7675549;23;20522;-71
2021/06/03 00:06:58;;;;;;;2.60;2.40;;;10.70;99.90;;;;;;7649591;23;20171;-70
2021/06/03 00:10:00;;;;;;;6.37;2.53;;;10.60;99.90;;;;;;7649596;23;20171;-71
2021/06/03 00:13:03;;;;;;;2.70;2.50;;;10.60;99.90;;;;;;7649006;23;20194;-71
2021/06/03 00:16:10;;;;;;;4.07;2.60;;;10.50;99.90;;;;;;7675938;23;20188;-71
2021/06/03 00:19:13;;;;;;;3.90;2.47;;;10.50;99.90;;;;;;7675502;23;20593;-71
2021/06/03 00:22:15;;;;;;;3.80;3.10;;;10.50;99.90;;;;;;7649334;23;20172;-71
2021/06/03 00:25:18;;;;;;;5.03;2.80;;;10.50;99.90;;;;;;7676475;23;20168;-71
2021/06/03 00:28:21;;;;;;;3.50;2.50;;;10.40;99.90;;;;;;7648834;23;20172;-71
2021/06/03 00:31:23;;;;;;;3.30;2.60;;;10.40;99.90;;;;;;7649354;23;20247;-71
2021/06/03 00:34:25;;;;;;;5.57;3.20;;;10.40;99.90;;;;;;7675286;23;20589;-71
2021/06/03 00:37:27;;;;;;;4.10;3.10;;;10.40;99.90;;;;;;7649567;23;20269;-71
2021/06/03 00:40:30;;;;;;;3.23;2.93;;;10.30;99.90;;;;;;7675153;23;20168;-71
2021/06/03 00:43:32;;;;;;;3.37;2.60;;;10.30;99.90;;;;;;7676243;23;20176;-71
2021/06/03 00:46:34;;;;;;;3.00;2.53;;;10.30;99.90;;;;;;7649884;23;20178;-71
2021/06/03 00:49:37;;;;;;;3.83;2.70;;;10.20;99.90;;;;;;7649147;23;20178;-71
2021/06/03 00:52:40;;;;;;;3.13;2.83;;;10.30;99.90;;;;;;7677867;23;20214;-71
2021/06/03 00:55:48;;;;;;;2.83;2.60;;;10.30;99.90;;;;;;7650733;23;20257;-71
2021/06/03 00:58:55;;;;;;;5.80;2.60;;;10.20;99.90;;;;;;7651677;23;20168;-71
2021/06/03 01:02:03;;;;;;;3.20;2.90;;;10.20;99.90;;;;;;7628336;23;20174;-71
2021/06/03 01:05:23;;;;;;;2.97;2.77;;;10.20;99.90;;;;;;7677945;23;20231;-71
2021/06/03 01:08:56;;;;;;;3.07;2.63;;;10.20;99.90;;;;;;7652447;23;20168;-71
2021/06/03 01:12:21;;;;;;;3.37;3.07;;;10.10;99.90;;;;;;7676445;23;20202;-71
2021/06/03 01:15:26;;;;;;;3.90;2.90;;;10.10;99.90;;;;;;7652359;23;20176;-71
2021/06/03 01:18:35;;;;;;;4.83;2.90;;;10.10;99.90;;;;;;7651158;23;20199;-71
2021/06/03 01:21:45;;;;;;;2.90;2.60;;;10.00;99.90;;;;;;7651648;23;20204;-71
2021/06/03 01:24:53;;;;;;;3.27;2.77;;;10.00;99.90;;;;;;7677928;23;20183;-71
2021/06/03 01:27:56;;;;;;;3.30;3.00;;;10.00;99.90;;;;;;7627632;23;20175;-71
2021/06/03 01:31:02;;;;;;;3.00;2.43;;;10.00;99.90;;;;;;7652969;23;20468;-71
2021/06/03 01:34:04;;;;;;;4.03;2.93;;;10.00;99.90;;;;;;7677912;23;20180;-71
2021/06/03 01:37:07;;;;;;;6.50;2.73;;;9.90;99.90;;;;;;7651796;23;20199;-71
2021/06/03 01:40:10;;;;;;;3.77;2.83;;;9.90;99.90;;;;;;7651031;23;20610;-71
2021/06/03 01:43:15;;;;;;;3.00;2.70;;;9.90;99.90;;;;;;7651557;23;20173;-71
2021/06/03 01:46:18;;;;;;;2.97;2.77;;;9.90;99.90;;;;;;7677708;23;20176;-71
2021/06/03 01:49:21;;;;;;;2.80;2.60;;;9.90;99.90;;;;;;7677360;23;20177;-71
2021/06/03 01:52:25;;;;;;;3.23;2.90;;;9.90;99.90;;;;;;7651241;23;20174;-71
2021/06/03 01:55:29;;;;;;;3.47;2.57;;;9.90;99.90;;;;;;7650211;23;20184;-71
2021/06/03 01:58:31;;;;;;;6.03;3.03;;;9.90;99.90;;;;;;7651091;23;20180;-71
2021/06/03 02:01:37;;;;;;;3.20;2.90;;;9.90;99.90;;;;;;7676935;23;20168;-71
2021/06/03 02:04:39;;;;;;;2.83;2.53;;;9.90;99.90;;;;;;7650258;23;20181;-71
2021/06/03 02:07:42;;;;;;;3.80;3.50;;;9.90;99.90;;;;;;7677316;23;20241;-71
2021/06/03 02:10:44;;;;;;;3.00;2.80;;;9.80;99.90;;;;;;7676328;23;20679;-71
2021/06/03 02:13:58;;;;;;;3.20;2.60;;;9.90;99.90;;;;;;7651812;23;20210;-71
2021/06/03 02:17:18;;;;;;;3.73;2.93;;;9.90;99.90;;;;;;7676473;23;20185;-71
2021/06/03 02:20:31;;;;;;;2.90;2.70;;;9.90;99.90;;;;;;7650581;23;20778;-71
2021/06/03 02:23:36;;;;;;;3.17;2.90;;;9.80;99.90;;;;;;7651512;23;20155;-71
2021/06/03 02:26:43;;;;;;;4.03;3.07;;;9.80;99.90;;;;;;7676577;23;20571;-71
2021/06/03 02:29:48;;;;;;;5.13;3.30;;;9.80;99.90;;;;;;7650673;23;20175;-71
2021/06/03 02:32:57;;;;;;;4.27;3.03;;;9.70;99.90;;;;;;7649650;23;20193;-71
2021/06/03 02:36:00;;;;;;;4.50;3.13;;;9.70;99.90;;;;;;7650352;23;20203;-71
2021/06/03 02:39:06;;;;;;;3.93;3.27;;;9.70;99.90;;;;;;7650013;23;20183;-71
2021/06/03 02:42:09;;;;;;;2.87;2.67;;;9.70;99.90;;;;;;7651387;23;20596;-71
2021/06/03 02:45:16;;;;;;;3.33;3.00;;;9.60;99.90;;;;;;7650414;23;20181;-71
2021/06/03 02:48:18;;;;;;;4.53;2.87;;;9.60;99.90;;;;;;7676193;23;20500;-71
2021/06/03 02:51:21;;;;;;;5.80;3.17;;;9.60;99.90;;;;;;7650774;23;20181;-71
2021/06/03 02:54:23;;;;;;;3.33;2.90;;;9.60;99.90;;;;;;7676272;23;20511;-71
2021/06/03 02:57:26;;;;;;;3.40;3.10;;;9.50;99.90;;;;;;7676640;23;20204;-71
2021/06/03 03:00:31;;;;;;;4.90;3.03;;;9.50;99.90;;;;;;7676345;23;20173;-71
2021/06/03 03:03:34;;;;;;;3.13;2.83;;;9.60;99.90;;;;;;7649798;23;20166;-71
2021/06/03 03:06:37;;;;;;;5.70;3.17;;;9.50;99.90;;;;;;7650263;23;20261;-71
2021/06/03 03:09:39;;;;;;;3.60;2.90;;;9.50;99.90;;;;;;7649822;23;20177;-71
2021/06/03 03:12:42;;;;;;;3.30;3.00;;;9.50;99.90;;;;;;7649669;23;20225;-71
2021/06/03 03:15:47;;;;;;;3.30;3.00;;;9.50;99.90;;;;;;7649553;23;20225;-71
2021/06/03 03:18:50;;;;;;;3.67;3.07;;;9.40;99.90;;;;;;7676419;23;20521;-71
2021/06/03 03:21:53;;;;;;;3.63;2.80;;;9.40;99.90;;;;;;7676557;23;20165;-71
2021/06/03 03:24:55;;;;;;;5.63;3.07;;;9.40;99.90;;;;;;7625190;23;20187;-71
2021/06/03 03:27:58;;;;;;;3.57;3.07;;;9.40;99.90;;;;;;7650305;23;20262;-71
2021/06/03 03:31:00;;;;;;;5.17;2.97;;;9.50;99.90;;;;;;7648947;23;20229;-71
2021/06/03 03:34:06;;;;;;;2.80;2.60;;;9.50;99.90;;;;;;7650073;23;20194;-71
2021/06/03 03:37:10;;;;;;;4.90;2.97;;;9.50;99.90;;;;;;7676161;23;20591;-71
2021/06/03 03:40:19;;;;;;;3.40;3.10;;;9.50;99.90;;;;;;7649488;23;20324;-71
2021/06/03 03:43:21;;;;;;;3.53;3.23;;;9.50;99.90;;;;;;7625647;23;20166;-71
2021/06/03 03:46:25;;;;;;;3.17;2.87;;;9.50;99.90;;;;;;7625171;23;20624;-71
2021/06/03 03:49:28;;;;;;;3.80;3.07;;;9.50;99.90;;;;;;7676197;23;20242;-71
2021/06/03 03:52:33;;;;;;;3.37;3.07;;;9.50;99.90;;;;;;7649745;23;20178;-71
2021/06/03 03:55:37;;;;;;;3.67;3.07;;;9.60;99.90;;;;;;7675282;23;20166;-71
2021/06/03 03:58:43;;;;;;;3.60;2.80;;;9.60;99.90;;;;;;7649502;23;20190;-71
2021/06/03 04:01:47;;;;;;;3.23;2.93;;;9.60;99.90;;;;;;7649225;23;20648;-71
2021/06/03 04:04:52;;;;;;;3.70;3.00;;;9.60;99.90;;;;;;7649538;23;20504;-71
2021/06/03 04:07:55;;;;;;;3.30;3.10;;;9.60;99.90;;;;;;7624987;23;20618;-71
2021/06/03 04:11:00;;;;;;;5.60;3.00;;;9.60;99.90;;;;;;7649492;23;20165;-71
2021/06/03 04:14:07;;;;;;;3.93;3.00;;;9.70;99.90;;;;;;7676076;23;20150;-71
2021/06/03 04:17:10;;;;;;;3.23;2.93;;;9.70;99.90;;;;;;7649649;23;20191;-71
2021/06/03 04:20:20;;;;;;;3.27;2.97;;;9.70;99.90;;;;;;7675983;23;20218;-71
2021/06/03 04:23:25;;;;;;;3.30;2.50;;;9.80;99.90;;;;;;7648957;23;20162;-71
2021/06/03 04:26:27;;;;;;;3.63;2.60;;;9.80;99.90;;;;;;7651253;23;20252;-71
2021/06/03 04:29:30;;;;;;;5.07;2.73;;;9.90;99.90;;;;;;7652357;23;20498;-71
2021/06/03 04:32:33;;;;;;;4.23;2.80;;;9.80;99.90;;;;;;7677650;23;20177;-71
2021/06/03 04:35:36;;;;;;;3.53;3.00;;;9.80;99.90;;;;;;7651873;23;20182;-71
2021/06/03 04:38:38;;;;;;;3.37;2.97;;;9.90;99.90;;;;;;7651136;23;20263;-71
2021/06/03 04:41:41;;;;;;;2.60;2.40;;;9.90;99.90;;;;;;7678169;23;20242;-71
2021/06/03 04:44:43;;;;;;;4.17;2.80;;;10.00;99.90;;;;;;7651330;23;20623;-71
2021/06/03 04:47:46;;;;;;;3.60;3.20;;;10.00;99.90;;;;;;7678267;23;20496;-71
2021/06/03 04:50:48;;;;;;;3.37;2.90;;;10.00;99.90;;;;;;7679444;23;20179;-71
2021/06/03 04:53:50;;;;;;;3.27;2.67;;;10.10;99.90;;;;;;7677744;23;20167;-71
2021/06/03 04:56:52;;;;;;;3.40;2.50;;;10.20;99.90;;;;;;7677583;23;20203;-71
2021/06/03 04:59:55;;;;;;;4.53;3.00;;;10.20;99.90;;;;;;7650943;23;20190;-71
2021/06/03 05:02:59;;;;;;;4.03;3.40;;;10.30;99.90;;;;;;7678374;23;20233;-71
2021/06/03 05:06:02;;;;;;;3.17;2.87;;;10.30;99.90;;;;;;7678123;23;20172;-71
2021/06/03 05:09:04;;;;;;;5.03;3.10;;;10.30;99.90;;;;;;7677307;23;20179;-71
2021/06/03 05:12:07;;;;;;;4.13;2.83;;;10.40;99.90;;;;;;7651255;23;20222;-71
2021/06/03 05:15:11;;;;;;;2.77;2.47;;;10.50;99.90;;;;;;7651271;23;20171;-71
2021/06/03 05:18:13;;;;;;;4.37;2.87;;;10.60;99.90;;;;;;7651795;23;20234;-71
2021/06/03 05:21:15;;;;;;;2.90;2.67;;;10.70;99.90;;;;;;7677635;23;20171;-71
2021/06/03 05:24:19;;;;;;;3.23;2.50;;;10.70;99.90;;;;;;7650731;23;20172;-71
2021/06/03 05:27:21;;;;;;;3.53;2.97;;;10.80;99.90;;;;;;7651524;23;20243;-71
2021/06/03 05:30:24;;;;;;;3.33;3.03;;;10.90;99.90;;;;;;7651161;23;20167;-71
2021/06/03 05:33:27;;;;;;;5.27;2.80;;;11.00;99.90;;;;;;7677713;23;20171;-71
2021/06/03 05:36:29;;;;;;;3.10;2.80;;;11.10;99.90;;;;;;7676286;23;20191;-71
2021/06/03 05:39:33;;;;;;;3.87;3.23;;;11.10;99.90;;;;;;7677691;23;20192;-71
2021/06/03 05:42:36;;;;;;;3.40;3.10;;;11.20;99.90;;;;;;7626451;23;20632;-71
2021/06/03 05:45:38;;;;;;;3.63;2.63;;;11.20;99.90;;;;;;7626039;23;20172;-71
2021/06/03 05:48:40;;;;;;;3.07;2.87;;;11.30;99.90;;;;;;7677548;23;20601;-71
2021/06/03 05:51:43;;;;;;;4.13;3.37;;;11.30;99.90;;;;;;7650397;23;20491;-71
2021/06/03 05:54:45;;;;;;;4.93;3.57;;;11.40;99.90;;;;;;7651328;23;20168;-71
2021/06/03 05:57:48;;;;;;;3.70;3.10;;;11.50;99.90;;;;;;7650875;23;20262;-71
2021/06/03 06:00:51;;;;;;;4.17;3.40;;;11.60;99.90;;;;;;7650144;23;20168;-71
2021/06/03 06:07:05;;;;;;;4.93;3.70;;;11.80;99.90;;;;;;7676729;23;20639;-71
2021/06/03 06:10:08;;;;;;;5.87;3.70;;;12.00;99.90;;;;;;7650506;23;20175;-72
2021/06/03 06:13:11;;;;;;;7.10;4.13;;;12.10;99.90;;;;;;7650630;23;20172;-72
2021/06/03 06:16:14;;;;;;;3.63;3.23;;;12.30;99.90;;;;;;7676701;23;20557;-72
2021/06/03 06:19:16;;;;;;;5.47;3.60;;;12.40;99.90;;;;;;7677082;23;20188;-72
2021/06/03 06:22:18;;;;;;;3.87;3.53;;;12.60;99.90;;;;;;7676253;23;20489;-72
2021/06/03 06:25:21;;;;;;;4.40;3.37;;;12.70;99.90;;;;;;7676836;23;20688;-72
2021/06/03 06:28:23;;;;;;;3.83;3.40;;;12.90;99.90;;;;;;7650046;23;20173;-72
2021/06/03 06:31:25;;;;;;;4.27;3.33;;;13.10;99.90;;;;;;7626216;23;20262;-72
2021/06/03 06:34:27;;;;;;;5.47;3.37;;;13.30;99.90;;;;;;7677221;23;20175;-72
2021/06/03 06:37:30;;;;;;;3.57;3.27;;;13.50;99.90;;;;;;7676087;23;20217;-72
2021/06/03 06:40:32;;;;;;;3.60;3.00;;;13.80;99.90;;;;;;7676740;23;20160;-72
2021/06/03 06:43:35;;;;;;;3.90;3.43;;;14.10;99.90;;;;;;7676488;23;20164;-72
2021/06/03 06:46:37;;;;;;;4.50;3.13;;;14.30;99.90;;;;;;7676849;23;20171;-72
2021/06/03 06:49:40;;;;;;;3.37;2.93;;;14.60;99.90;;;;;;7650494;23;20176;-71
2021/06/03 06:52:42;;;;;;;6.20;3.07;;;15.00;99.90;;;;;;7650016;23;20210;-70
2021/06/03 06:55:46;;;;;;;5.23;3.93;;;15.30;99.90;;;;;;7676445;23;20684;-71
2021/06/03 06:58:48;;;;;;;4.20;2.87;;;15.70;99.90;;;;;;7676325;23;20183;-72
2021/06/03 07:01:51;;;;;;;3.50;2.50;;;16.10;99.90;;;;;;7676602;23;20164;-72
2021/06/03 07:04:53;;;;;;;6.63;2.80;;;16.50;99.90;;;;;;7650206;23;20182;-72
2021/06/03 07:07:56;;;;;;;4.23;2.50;;;16.70;99.90;;;;;;7675949;23;20618;-72
2021/06/03 07:10:59;;;;;;;2.83;2.60;;;17.10;99.90;;;;;;7649935;23;20186;-72
2021/06/03 07:14:03;;;;;;;3.10;2.73;;;17.40;99.90;;;;;;7676107;23;20175;-72
2021/06/03 07:17:06;;;;;;;3.37;2.90;;;17.70;99.90;;;;;;7650878;23;20194;-72
2021/06/03 07:20:12;;;;;;;4.77;2.60;;;18.00;99.90;;;;;;7651086;23;20174;-70
2021/06/03 07:23:14;;;;;;;4.50;2.90;;;18.20;99.90;;;;;;7651228;23;20601;-70
2021/06/03 07:26:16;;;;;;;3.13;2.60;;;18.40;99.90;;;;;;7677284;23;20168;-71
2021/06/03 07:29:19;;;;;;;4.33;2.47;;;18.60;99.90;;;;;;7675683;23;20467;-70
2021/06/03 07:32:21;;;;;;;3.73;2.93;;;19.00;99.80;;;;;;7676167;23;20190;-70
2021/06/03 07:35:26;;;;;;;2.83;2.50;;;19.30;96.40;;;;;;7675966;23;20624;-70
2021/06/03 07:38:28;;;;;;;3.83;2.67;;;19.60;97.00;;;;;;7649599;23;20196;-70
2021/06/03 07:41:31;;;;;;;2.57;2.37;;;20.00;97.10;;;;;;7649786;23;20180;-70
2021/06/03 07:44:33;;;;;;;3.77;2.50;;;20.30;96.70;;;;;;7649217;23;20267;-70
2021/06/03 07:47:36;;;;;;;2.30;2.10;;;20.60;96.00;;;;;;7676225;23;20175;-70
2021/06/03 07:50:39;;;;;;;2.67;2.13;;;21.00;95.50;;;;;;7675558;23;20168;-70
2021/06/03 07:53:41;;;;;;;3.17;2.77;;;21.30;94.00;;;;;;7649964;23;20167;-69
2021/06/03 07:56:43;;;;;;;3.77;2.33;;;21.60;89.90;;;;;;7649784;23;20191;-69
2021/06/03 07:59:46;;;;;;;3.50;2.60;;;21.90;89.30;;;;;;7649070;23;20199;-69
2021/06/03 08:02:48;;;;;;;3.10;2.80;;;22.10;82.60;;;;;;7675990;23;20667;-69
2021/06/03 08:05:51;;;;;;;3.33;2.43;;;22.30;74.70;;;;;;7675599;23;20500;-69
2021/06/03 08:08:53;;;;;;;4.07;2.33;;;22.20;75.90;;;;;;7675997;23;20609;-69
2021/06/03 08:11:55;;;;;;;2.60;2.37;;;22.50;79.50;;;;;;7649548;23;20496;-69
2021/06/03 08:14:58;;;;;;;3.53;2.70;;;22.80;78.90;;;;;;7649341;23;20176;-69
2021/06/03 08:18:02;;;;;;;2.80;2.43;;;23.10;72.60;;;;;;7650228;23;20191;-69
2021/06/03 08:21:05;;;;;;;3.00;2.70;;;23.30;70.70;;;;;;7649032;23;20227;-69
2021/06/03 08:24:08;;;;;;;5.73;2.97;;;23.60;67.70;;;;;;7676359;23;20197;-69
2021/06/03 08:27:10;;;;;;;4.50;2.50;;;23.50;63.00;;;;;;7649514;23;20164;-69
2021/06/03 08:30:14;;;;;;;3.90;3.07;;;23.40;64.70;;;;;;7676057;23;20232;-69
2021/06/03 08:33:16;;;;;;;4.53;3.07;;;23.50;61.00;;;;;;7625047;23;20525;-69
2021/06/03 08:36:21;;;;;;;4.77;2.83;;;23.30;62.40;;;;;;7675305;23;20192;-69
2021/06/03 08:39:23;;;;;;;3.33;2.57;;;23.20;63.90;;;;;;7675759;23;20184;-69
2021/06/03 08:42:25;;;;;;;3.40;2.77;;;23.40;65.50;;;;;;7649153;23;20617;-69
2021/06/03 08:45:30;;;;;;;3.37;2.57;;;23.70;61.20;;;;;;7676128;23;20171;-69
2021/06/03 08:48:32;;;;;;;7.37;2.90;;;23.90;61.20;;;;;;7675905;23;20200;-69
2021/06/03 08:51:35;;;;;;;3.27;2.73;;;24.20;60.30;;;;;;7648976;23;20175;-69
2021/06/03 08:54:40;;;;;;;3.70;2.73;;;24.00;58.60;;;;;;7675972;23;20168;-69
2021/06/03 08:57:42;;;;;;;2.73;2.47;;;24.00;60.60;;;;;;7649159;23;20633;-69
2021/06/03 09:00:45;;;;;;;4.70;2.73;;;24.20;59.80;;;;;;7649521;23;20222;-69
2021/06/03 09:03:48;;;;;;;3.10;2.57;;;24.50;59.00;;;;;;7649271;23;20172;-69
2021/06/03 09:06:50;;;;;;;3.67;2.60;;;24.80;58.30;;;;;;7649528;23;20251;-69
2021/06/03 09:09:52;;;;;;;5.80;3.07;;;24.90;57.80;;;;;;7649781;23;20654;-69
2021/06/03 09:13:11;;;;;;;3.07;2.77;;;25.20;57.80;;;;;;7649753;23;20172;-69
2021/06/03 09:16:17;;;;;;;3.83;2.53;;;25.20;58.60;;;;;;7652078;23;20231;-69
2021/06/03 09:19:19;;;;;;;5.53;2.77;;;25.50;58.20;;;;;;7650974;23;20191;-69
2021/06/03 09:22:38;;;;;;;2.77;2.57;;;25.60;56.30;;;;;;7677825;23;20160;-69
2021/06/03 09:25:41;;;;;;;2.60;2.40;;;26.00;58.20;;;;;;7651826;23;20165;-69
2021/06/03 09:28:45;;;;;;;3.65;2.67;;;26.40;57.60;;;;;;7677477;23;20172;-69
2021/06/03 09:31:49;;;;;;;4.45;2.85;;;26.60;54.80;;;;;;7626920;23;20581;-69
2021/06/03 09:34:56;;;;;;;3.92;3.33;;;26.60;53.70;;;;;;7676877;23;20168;-69
2021/06/03 09:38:04;;;;;;;3.42;2.50;;;26.50;53.00;;;;;;7677777;23;20212;-69
2021/06/03 09:41:08;;;;;;;3.08;2.78;;;26.40;52.20;;;;;;7651569;23;20179;-69
2021/06/03 09:44:21;;;;;;;3.65;2.53;;;26.40;52.90;;;;;;7677662;23;20160;-69
2021/06/03 09:47:37;;;;;;;4.55;2.63;;;26.70;53.90;;;;;;7626924;23;20168;-69
2021/06/03 09:50:40;;;;;;;3.00;2.03;;;27.00;51.40;;;;;;7650564;23;20164;-69
2021/06/03 09:54:04;;;;;;;5.63;2.45;;;26.80;51.90;;;;;;7650864;23;20183;-69
2021/06/03 09:57:11;;;;;;;2.42;2.22;;;27.00;50.20;;;;;;7676636;23;20537;-69
2021/06/03 10:00:17;;;;;;;4.00;2.25;;;26.80;50.30;;;;;;7677444;23;20617;-69
2021/06/03 10:03:19;;;;;;;3.25;2.10;;;27.20;51.90;;;;;;7625953;23;20497;-69
2021/06/03 10:06:22;;;;;;;3.63;2.72;;;27.90;52.90;;;;;;7678679;23;20612;-69
2021/06/03 10:10:04;;;;;;;2.45;2.25;;;28.20;49.50;;;;;;7651305;23;20183;-69
2021/06/03 10:13:10;;;;;;;3.47;2.47;;;28.00;49.30;;;;;;7671376;23;20187;-69
2021/06/03 10:16:32;;;;;;;2.70;2.50;;;27.90;48.20;;;;;;7651200;23;20152;-69
2021/06/03 10:19:34;;;;;;;2.85;2.30;;;27.90;48.20;;;;;;7650869;23;20271;-69
2021/06/03 10:22:40;;;;;;;3.78;2.70;;;28.00;47.70;;;;;;7676616;23;20557;-69
2021/06/03 10:25:43;;;;;;;3.35;2.60;;;27.70;47.90;;;;;;7677176;23;20164;-69
2021/06/03 10:28:45;;;;;;;4.18;2.47;;;27.50;48.10;;;;;;7677076;23;20168;-69
2021/06/03 10:31:47;;;;;;;2.40;2.20;;;28.00;48.70;;;;;;7676951;23;20196;-69
2021/06/03 10:34:52;;;;;;;4.53;2.13;;;28.40;47.30;;;;;;7676320;23;20168;-69
2021/06/03 10:37:56;;;;;;;3.50;2.28;;;28.80;50.30;;;;;;7650707;23;20639;-69
2021/06/03 10:41:02;;;;;;;4.32;2.40;;;29.30;48.20;;;;;;7625581;23;20171;-70
2021/06/03 10:44:06;;;;;;;3.17;2.50;;;29.40;47.10;;;;;;7677017;23;20159;-69
2021/06/03 10:47:13;;;;;;;2.92;2.47;;;29.80;46.50;;;;;;7676708;23;20168;-69
2021/06/03 10:50:24;;;;;;;4.03;2.40;;;29.90;45.70;;;;;;7650609;23;20164;-69
2021/06/03 10:53:30;;;;;;;2.50;2.30;;;29.40;43.10;;;;;;7650256;23;20676;-69
2021/06/03 10:56:32;;;;;;;5.28;2.65;;;28.90;44.40;;;;;;7676114;23;20192;-69
2021/06/03 10:59:37;;;;;;;4.10;2.30;;;29.00;44.10;;;;;;7676680;23;20211;-69
2021/06/03 11:03:05;;;;;;;4.05;2.22;;;28.70;44.30;;;;;;7649719;23;20499;-69
2021/06/03 11:06:08;;;;;;;4.32;2.05;;;28.50;46.10;;;;;;7677071;23;20168;-69
2021/06/03 11:09:11;;;;;;;2.90;2.58;;;28.90;46.50;;;;;;7676654;23;20169;-69
2021/06/03 11:12:19;;;;;;;2.63;2.08;;;29.10;45.30;;;;;;7649926;23;20611;-69
2021/06/03 11:15:22;;;;;;;2.60;2.40;;;29.40;44.80;;;;;;7676736;23;20157;-69
2021/06/03 11:18:47;;;;;;;2.92;2.17;;;29.70;43.80;;;;;;7676104;23;20243;-69
2021/06/03 11:21:51;;;;;;;2.50;2.30;;;29.80;43.70;;;;;;7676673;23;20149;-69
2021/06/03 11:24:53;;;;;;;3.20;2.20;;;30.00;43.30;;;;;;7649923;23;20195;-69
2021/06/03 11:27:56;;;;;;;2.60;2.30;;;30.60;44.10;;;;;;7602144;23;20168;-69
2021/06/03 11:31:19;;;;;;;4.00;2.50;;;31.10;43.00;;;;;;7649923;23;20208;-69
2021/06/03 11:34:23;;;;;;;2.47;2.25;;;31.30;41.50;;;;;;7647569;23;20175;-69
2021/06/03 11:37:36;;;;;;;3.45;2.58;;;30.80;42.00;;;;;;7675475;23;20191;-69
2021/06/03 11:40:42;;;;;;;2.55;2.35;;;30.30;41.50;;;;;;7675626;23;20187;-69
2021/06/03 11:44:11;;;;;;;2.45;2.08;;;29.70;41.80;;;;;;7648883;23;20593;-69
2021/06/03 11:47:13;;;;;;;3.40;2.30;;;29.90;42.40;;;;;;7649055;23;20569;-69
2021/06/03 11:50:15;;;;;;;3.33;2.10;;;29.70;42.20;;;;;;7623857;23;20172;-69
2021/06/03 11:53:25;;;;;;;2.42;2.22;;;29.80;42.70;;;;;;7647663;23;20576;-69
2021/06/03 11:56:29;;;;;;;2.20;2.00;;;30.00;42.10;;;;;;7673933;23;20200;-69
2021/06/03 12:00:06;;;;;;;3.50;2.10;;;30.10;42.00;;;;;;7674035;23;20188;-69
2021/06/03 12:03:38;;;;;;;4.40;2.13;;;30.50;42.10;;;;;;7635781;23;20176;-69
2021/06/03 12:06:45;;;;;;;3.90;2.10;;;30.40;40.90;;;;;;7651086;23;20148;-69
2021/06/03 12:09:50;;;;;;;3.38;2.17;;;30.60;41.20;;;;;;7676542;23;20669;-69
2021/06/03 12:12:52;;;;;;;2.38;2.15;;;31.20;40.60;;;;;;7649040;23;20230;-69
2021/06/03 12:15:55;;;;;;;4.43;2.38;;;31.50;41.10;;;;;;7649158;23;20243;-69
2021/06/03 12:18:57;;;;;;;3.97;2.50;;;31.90;40.30;;;;;;7649928;23;20189;-69
2021/06/03 12:22:06;;;;;;;2.60;2.20;;;31.80;39.30;;;;;;7649973;23;20496;-69
2021/06/03 12:25:08;;;;;;;3.08;2.03;;;31.70;40.30;;;;;;7647827;23;20177;-69
2021/06/03 12:28:12;;;;;;;3.85;2.10;;;31.60;39.20;;;;;;7651072;23;20215;-69
2021/06/03 12:31:26;;;;;;;4.28;2.05;;;31.40;39.80;;;;;;7672172;23;20175;-69
2021/06/03 12:34:31;;;;;;;2.38;1.90;;;31.20;39.90;;;;;;7648380;23;20157;-69
2021/06/03 12:37:48;;;;;;;2.97;2.47;;;31.40;39.20;;;;;;7649962;23;20278;-69
2021/06/03 12:40:51;;;;;;;3.20;2.15;;;31.30;38.40;;;;;;7675270;23;20624;-69
2021/06/03 12:44:11;;;;;;;2.40;2.20;;;30.90;39.60;;;;;;7650022;23;20171;-69
2021/06/03 12:47:13;;;;;;;3.05;2.17;;;31.40;39.80;;;;;;7677242;23;20596;-69
2021/06/03 12:50:17;;;;;;;2.97;1.90;;;30.90;39.40;;;;;;7678575;23;20168;-69
2021/06/03 12:53:20;;;;;;;2.53;2.03;;;30.90;39.90;;;;;;7677673;23;20284;-69
2021/06/03 12:56:23;;;;;;;3.33;2.05;;;31.30;39.30;;;;;;7652271;23;20196;-69
2021/06/03 12:59:29;;;;;;;2.80;1.70;;;31.70;36.70;;;;;;7678418;23;20187;-69
2021/06/03 13:02:33;;;;;;;2.22;2.03;;;31.60;38.70;;;;;;7651365;23;20188;-69
2021/06/03 13:05:35;;;;;;;4.68;2.25;;;31.60;37.20;;;;;;7678665;23;20275;-69
2021/06/03 13:08:50;;;;;;;2.67;1.98;;;31.00;37.90;;;;;;7677829;23;20179;-69
2021/06/03 13:11:52;;;;;;;2.55;1.80;;;30.80;38.30;;;;;;7678114;23;20165;-69
2021/06/03 13:14:57;;;;;;;3.78;1.67;;;31.00;37.20;;;;;;7651783;23;20194;-69
2021/06/03 13:18:04;;;;;;;3.22;1.95;;;31.10;38.00;;;;;;7651276;23;20179;-69
2021/06/03 13:21:12;;;;;;;3.58;2.28;;;31.00;37.50;;;;;;7677996;23;20631;-69
2021/06/03 13:24:21;;;;;;;4.20;2.10;;;30.50;39.30;;;;;;7677389;23;20156;-69
2021/06/03 13:27:32;;;;;;;2.90;2.08;;;30.00;37.50;;;;;;7678264;23;20177;-69
2021/06/03 13:30:39;;;;;;;3.50;1.80;;;30.20;37.90;;;;;;7677451;23;20585;-69
2021/06/03 13:33:42;;;;;;;2.08;1.85;;;31.00;38.20;;;;;;7678143;23;20203;-69
2021/06/03 13:37:00;;;;;;;2.10;1.90;;;31.60;36.30;;;;;;7677837;23;20188;-69
2021/06/03 13:40:11;;;;;;;2.92;1.70;;;31.60;36.00;;;;;;7651104;23;20188;-69
2021/06/03 13:43:16;;;;;;;2.83;1.92;;;31.50;35.30;;;;;;7677824;23;20158;-69
2021/06/03 13:46:18;;;;;;;2.10;1.88;;;31.80;36.10;;;;;;7677366;23;20153;-69
2021/06/03 13:49:31;;;;;;;3.35;2.00;;;32.70;35.80;;;;;;7677856;23;20168;-70
2021/06/03 13:52:45;;;;;;;2.20;2.00;;;32.80;34.80;;;;;;7677214;23;20149;-70
2021/06/03 13:55:53;;;;;;;2.63;1.88;;;32.50;36.10;;;;;;7651300;23;20172;-69
2021/06/03 13:59:12;;;;;;;2.38;2.05;;;32.70;35.40;;;;;;7677124;23;20176;-69
2021/06/03 14:02:18;;;;;;;2.03;1.80;;;33.10;36.10;;;;;;7651331;23;20211;-69
2021/06/03 14:05:20;;;;;;;2.40;1.90;;;33.50;35.10;;;;;;7651448;23;20168;-69
2021/06/03 14:08:24;;;;;;;2.70;2.00;;;34.10;34.50;;;;;;7677065;23;20163;-69
2021/06/03 14:11:41;;;;;;;3.42;2.08;;;34.60;33.30;;;;;;7677981;23;20168;-69
2021/06/03 14:14:46;;;;;;;2.80;1.95;;;35.10;32.90;;;;;;7677207;23;20160;-69
2021/06/03 14:18:03;;;;;;;2.20;1.70;;;35.00;33.30;;;;;;7651325;23;20255;-69
2021/06/03 14:21:09;;;;;;;1.77;1.67;;;35.40;33.50;;;;;;7677288;23;20183;-69
2021/06/03 14:24:22;;;;;;;2.17;1.70;;;36.00;33.20;;;;;;7676629;23;20472;-69
2021/06/03 14:27:33;;;;;;;3.08;1.90;;;36.60;33.00;;;;;;7677443;23;20144;-69
2021/06/03 14:30:37;;;;;;;3.17;2.00;;;36.10;32.00;;;;;;7650930;23;20161;-70
2021/06/03 14:33:47;;;;;;;2.45;2.15;;;35.50;32.10;;;;;;7651361;23;20169;-70
2021/06/03 14:36:56;;;;;;;3.05;1.70;;;35.50;32.30;;;;;;7676615;23;20279;-70
2021/06/03 14:40:00;;;;;;;2.72;1.83;;;36.10;32.10;;;;;;7677432;23;20187;-70
2021/06/03 14:43:22;;;;;;;4.05;1.85;;;37.00;32.10;;;;;;7677135;23;20160;-70
2021/06/03 14:46:24;;;;;;;2.08;1.80;;;36.80;30.80;;;;;;7676768;23;20172;-70
2021/06/03 14:49:26;;;;;;;2.10;1.88;;;36.60;31.40;;;;;;7677201;23;20199;-70
2021/06/03 14:52:34;;;;;;;3.25;2.10;;;37.10;31.20;;;;;;7676292;23;20172;-70
2021/06/03 14:55:44;;;;;;;1.52;1.42;;;36.60;30.00;;;;;;7677202;23;20493;-70
2021/06/03 14:58:46;;;;;;;2.88;2.00;;;36.30;30.70;;;;;;7639747;23;20228;-70
2021/06/03 15:01:49;;;;;;;4.95;1.90;;;36.40;31.30;;;;;;7613549;23;20177;-70
2021/06/03 15:04:51;;;;;;;2.83;2.13;;;36.60;30.40;;;;;;7640154;23;20480;-70
2021/06/03 15:07:55;;;;;;;5.32;1.65;;;36.40;31.00;;;;;;7613099;23;20169;-70
2021/06/03 15:10:58;;;;;;;2.17;1.90;;;36.30;31.10;;;;;;7639840;23;20164;-70
2021/06/03 15:14:00;;;;;;;1.55;1.45;;;36.70;31.00;;;;;;7639138;23;20172;-70
2021/06/03 15:17:04;;;;;;;2.60;1.90;;;37.40;31.20;;;;;;7613749;23;20180;-70
2021/06/03 15:20:13;;;;;;;4.30;2.13;;;37.70;30.40;;;;;;7614117;23;20506;-70
2021/06/03 15:23:19;;;;;;;2.35;2.15;;;37.70;30.30;;;;;;7613008;23;20165;-70
2021/06/03 15:26:21;;;;;;;1.63;1.52;;;37.80;30.50;;;;;;7614146;23;20387;-71
2021/06/03 15:29:23;;;;;;;2.17;2.00;;;37.90;30.40;;;;;;7638947;23;20168;-70
2021/06/03 15:32:39;;;;;;;2.53;1.88;;;37.80;30.40;;;;;;7591560;23;20506;-70
2021/06/03 15:35:46;;;;;;;2.53;1.73;;;37.70;29.80;;;;;;7639396;23;20169;-70
2021/06/03 15:38:52;;;;;;;1.60;1.50;;;37.50;32.60;;;;;;7639638;23;20161;-70
2021/06/03 15:41:54;;;;;;;2.00;1.90;;;36.90;30.40;;;;;;7614315;23;20150;-70
2021/06/03 15:44:56;;;;;;;2.67;1.88;;;36.30;30.30;;;;;;7639320;23;20160;-70
2021/06/03 15:48:00;;;;;;;2.88;1.58;;;35.80;31.90;;;;;;7613813;23;20598;-70
2021/06/03 15:51:02;;;;;;;2.10;1.90;;;35.30;31.70;;;;;;7613052;23;20169;-70
2021/06/03 15:54:05;;;;;;;2.05;1.70;;;35.20;31.80;;;;;;7613328;23;20183;-70
2021/06/03 15:57:10;;;;;;;4.43;2.05;;;35.70;31.50;;;;;;7631609;23;20275;-70
2021/06/03 16:00:19;;;;;;;2.85;1.65;;;36.10;34.70;;;;;;7675997;23;20271;-70
2021/06/03 16:03:21;;;;;;;2.70;1.83;;;36.80;33.90;;;;;;7649880;23;20156;-70
2021/06/03 16:06:24;;;;;;;3.13;1.83;;;37.20;31.20;;;;;;7675682;23;20164;-70
2021/06/03 16:09:26;;;;;;;3.15;1.60;;;37.30;30.90;;;;;;7650501;23;20544;-70